Time;durP1;ratioP1;P1;durP2;ratioP2;P2;SDS_P1;SDS_P2;PMS_P1;PMS_P2;Temp;Humidity;BMP_temperature;BMP_pressure;BME280_temperature;BME280_humidity;BME280_pressure;Samples;Min_cycle;Max_cycle;Signal;HPM_P1;HPM_P2
2022/12/08 00:01:25;;;;;;;33.67;15.93;;;;;;;0.13;86.98;99887.09;4499507;31;33222;-86
2022/12/08 00:03:54;;;;;;;30.25;15.00;;;;;;;-0.36;89.87;99893.87;4492645;31;33392;-85
2022/12/08 00:09:20;;;;;;;33.58;16.05;;;;;;;-0.24;89.91;99892.41;4486836;31;33552;-86
2022/12/08 00:11:52;;;;;;;;;;;;;;;-0.34;91.01;99887.25;4499879;31;34097;-86
2022/12/08 00:14:26;;;;;;;30.10;14.27;;;;;;;-0.14;90.52;99893.22;4499340;31;34299;-87
2022/12/08 00:16:54;;;;;;;30.30;14.55;;;;;;;-0.21;90.78;99892.69;4499326;31;33378;-87
2022/12/08 00:19:22;;;;;;;31.23;14.98;;;;;;;0.06;90.07;99893.31;4472436;31;34762;-86
2022/12/08 00:21:50;;;;;;;30.50;14.07;;;;;;;0.30;88.61;99878.37;4492807;31;33508;-86
2022/12/08 00:24:17;;;;;;;28.12;13.75;;;;;;;0.12;89.08;99891.31;4493506;31;34460;-86
2022/12/08 00:26:45;;;;;;;26.62;14.00;;;;;;;0.50;87.92;99892.81;4496040;31;33852;-86
2022/12/08 00:29:13;;;;;;;29.95;14.23;;;;;;;0.26;89.44;99891.63;4486466;31;32602;-86
2022/12/08 00:31:44;;;;;;;29.92;14.73;;;;;;;0.39;88.30;99889.38;4498373;31;33428;-87
2022/12/08 00:34:13;;;;;;;33.70;14.85;;;;;;;0.19;88.90;99890.19;4498998;31;33453;-87
2022/12/08 00:36:41;;;;;;;25.62;13.70;;;;;;;0.32;88.59;99889.59;4484118;31;34103;-87
2022/12/08 00:39:10;;;;;;;28.58;13.77;;;;;;;0.64;86.75;99887.25;4498505;31;33265;-87
2022/12/08 00:44:24;;;;;;;28.20;14.48;;;;;;;0.22;88.02;99904.84;4499551;31;33723;-87
2022/12/08 00:46:51;;;;;;;27.90;13.70;;;;;;;0.23;88.37;99901.53;4498245;31;33763;-87
2022/12/08 00:49:19;;;;;;;26.85;13.50;;;;;;;0.53;87.86;99904.19;4498947;31;34476;-87
2022/12/08 00:51:48;;;;;;;28.30;14.77;;;;;;;0.85;86.42;99902.56;4499087;31;33616;-86
2022/12/08 00:54:16;;;;;;;27.25;12.93;;;;;;;0.83;85.78;99894.81;4498736;31;33902;-87
2022/12/08 00:56:43;;;;;;;28.75;13.38;;;;;;;1.56;83.76;99886.34;4484474;31;34674;-87
2022/12/08 00:59:11;;;;;;;35.60;16.77;;;;;;;2.15;80.41;99887.72;4498420;31;33831;-87
2022/12/08 01:01:38;;;;;;;32.97;16.62;;;;;;;1.83;79.46;99894.47;4484157;31;34225;-87
2022/12/08 01:04:09;;;;;;;32.05;15.23;;;;;;;0.67;84.29;99901.91;4485247;31;33567;-87
2022/12/08 01:06:38;;;;;;;27.50;14.75;;;;;;;0.62;85.94;99898.06;4481487;31;33132;-87
2022/12/08 01:09:06;;;;;;;27.73;13.65;;;;;;;0.63;85.28;99895.66;4500818;31;34340;-87
2022/12/08 01:11:34;;;;;;;26.30;12.48;;;;;;;0.48;85.96;99895.22;4501308;31;33603;-87
2022/12/08 01:14:02;;;;;;;24.90;11.70;;;;;;;0.95;84.24;99895.84;4485792;31;33536;-87
2022/12/08 01:16:32;;;;;;;28.58;10.82;;;;;;;1.03;84.10;99895.59;4486681;31;33947;-87
2022/12/08 01:19:00;;;;;;;25.62;12.43;;;;;;;0.97;84.13;99889.22;4500858;31;33426;-87
2022/12/08 01:21:27;;;;;;;21.92;11.65;;;;;;;0.95;84.47;99890.75;4500668;31;33406;-87
2022/12/08 01:23:58;;;;;;;23.35;11.30;;;;;;;0.68;85.66;99901.16;4494086;31;34166;-87
2022/12/08 01:26:25;;;;;;;25.55;13.15;;;;;;;0.56;86.24;99898.44;4496624;31;33955;-88
2022/12/08 01:28:53;;;;;;;23.85;12.93;;;;;;;0.46;86.80;99900.97;4501039;31;34475;-87
2022/12/08 01:31:21;;;;;;;24.00;12.27;;;;;;;0.55;87.26;99894.13;4470867;32;33654;-87
2022/12/08 01:33:49;;;;;;;24.67;11.77;;;;;;;0.50;87.04;99892.81;4481130;31;33901;-87
2022/12/08 01:36:22;;;;;;;24.55;11.65;;;;;;;0.75;86.72;99890.69;4499777;31;33589;-87
2022/12/08 01:38:50;;;;;;;28.73;11.65;;;;;;;0.57;87.13;99896.03;4486807;31;34653;-87
2022/12/08 01:41:20;;;;;;;21.00;11.55;;;;;;;0.84;85.70;99896.59;4473375;31;33874;-87
2022/12/08 01:43:55;;;;;;;24.63;12.45;;;;;;;0.78;85.80;99890.97;4473441;31;32226;-87
2022/12/08 01:46:24;;;;;;;24.25;12.48;;;;;;;0.65;86.39;99888.16;4486360;31;34258;-88
2022/12/08 01:48:56;;;;;;;26.80;12.25;;;;;;;0.70;85.91;99881.78;4485832;31;33717;-87
2022/12/08 01:51:27;;;;;;;20.65;11.10;;;;;;;0.62;85.28;99878.59;4486972;31;33486;-87
2022/12/08 01:53:54;;;;;;;22.52;11.60;;;;;;;0.42;86.08;99879.41;4470738;32;32678;-87
2022/12/08 01:56:31;;;;;;;24.90;12.57;;;;;;;0.47;85.77;99878.16;4485541;31;33599;-88
2022/12/08 01:58:59;;;;;;;23.35;11.35;;;;;;;0.28;86.51;99877.34;4486822;31;33526;-88
2022/12/08 02:01:26;;;;;;;24.87;12.48;;;;;;;0.09;87.90;99882.50;4500044;31;33456;-88
2022/12/08 02:03:58;;;;;;;29.80;12.95;;;;;;;-0.47;90.27;99876.75;4485910;31;34417;-88
2022/12/08 02:06:27;;;;;;;24.60;12.20;;;;;;;0.04;89.13;99874.47;4496957;31;34003;-88
2022/12/08 02:08:56;;;;;;;27.17;12.88;;;;;;;-0.17;89.73;99867.47;4485546;31;34420;-88
2022/12/08 02:11:24;;;;;;;28.48;14.00;;;;;;;-0.31;89.89;99872.28;4473322;31;33686;-87
2022/12/08 02:13:52;;;;;;;27.98;13.80;;;;;;;-0.72;91.88;99869.44;4460315;31;32207;-88
2022/12/08 02:16:34;;;;;;;26.75;13.62;;;;;;;-0.47;91.37;99859.81;4485241;31;34258;-87
2022/12/08 02:19:18;;;;;;;27.33;12.75;;;;;;;-0.02;89.91;99868.81;4485746;31;34472;-88
2022/12/08 02:22:16;;;;;;;30.40;13.62;;;;;;;0.09;88.33;99862.13;4488200;31;34823;-88
2022/12/08 02:25:06;;;;;;;24.40;11.82;;;;;;;0.01;88.90;99871.66;4488186;31;33764;-88
2022/12/08 02:27:52;;;;;;;26.83;13.18;;;;;;;0.11;89.13;99865.69;4500002;31;33862;-88
2022/12/08 02:30:46;;;;;;;21.52;11.50;;;;;;;0.05;88.84;99866.06;4499801;31;33747;-88
2022/12/08 02:33:32;;;;;;;22.00;11.88;;;;;;;0.08;89.24;99876.53;4473910;31;33257;-88
2022/12/08 02:36:15;;;;;;;24.77;12.05;;;;;;;0.34;88.43;99860.03;4500496;31;33773;-88
2022/12/08 02:39:07;;;;;;;26.35;12.23;;;;;;;0.31;88.21;99857.22;4485665;31;34781;-88
2022/12/08 02:41:34;;;;;;;29.98;12.82;;;;;;;0.16;89.14;99857.69;4489807;31;33753;-88
2022/12/08 02:44:17;;;;;;;22.67;11.93;;;;;;;0.07;89.39;99849.25;4498194;31;34073;-87
2022/12/08 02:47:26;;;;;;;25.95;11.93;;;;;;;0.12;89.20;99850.56;4472615;31;31695;-87
2022/12/08 02:49:55;;;;;;;23.12;12.88;;;;;;;0.05;89.87;99848.22;4479945;31;34718;-88
2022/12/08 02:52:22;;;;;;;23.33;12.57;;;;;;;0.32;88.84;99851.38;4470340;32;33704;-88
2022/12/08 02:54:53;;;;;;;24.65;12.90;;;;;;;0.28;89.41;99846.78;4497684;31;34186;-87
2022/12/08 02:57:35;;;;;;;23.12;11.95;;;;;;;0.41;88.44;99852.16;4473029;31;33677;-88
2022/12/08 03:00:07;;;;;;;24.92;11.38;;;;;;;0.36;88.33;99838.12;4500281;31;33745;-88
2022/12/08 03:02:41;;;;;;;26.33;13.43;;;;;;;0.33;89.15;99833.69;4485378;31;34366;-88
2022/12/08 03:05:50;;;;;;;20.62;11.40;;;;;;;-0.29;90.88;99840.22;4498817;31;33712;-88
2022/12/08 03:08:35;;;;;;;22.45;11.57;;;;;;;0.19;90.81;99839.22;4465069;32;31623;-88
2022/12/08 03:11:19;;;;;;;26.12;11.48;;;;;;;0.11;90.20;99841.13;4484494;31;33670;-88
2022/12/08 03:13:52;;;;;;;22.60;11.80;;;;;;;-0.07;90.73;99844.62;4499505;31;33873;-88
2022/12/08 03:16:22;;;;;;;23.50;11.57;;;;;;;-0.27;91.88;99841.25;4469731;31;32751;-88
2022/12/08 03:19:05;;;;;;;26.58;12.25;;;;;;;-0.11;91.14;99837.50;4472216;31;33544;-87
2022/12/08 03:21:34;;;;;;;20.30;10.43;;;;;;;0.57;87.84;99822.09;4475292;31;34087;-87
2022/12/08 03:24:04;;;;;;;24.40;10.88;;;;;;;0.49;87.50;99830.78;4478052;32;34238;-87
2022/12/08 03:27:02;;;;;;;22.62;11.20;;;;;;;-0.20;91.13;99833.34;4480071;31;33006;-87
2022/12/08 03:29:31;;;;;;;24.08;12.00;;;;;;;0.30;89.25;99837.62;4453926;32;34571;-87
2022/12/08 03:32:05;;;;;;;22.23;10.85;;;;;;;0.47;88.88;99834.84;4482336;31;34891;-88
2022/12/08 03:34:34;;;;;;;22.08;11.00;;;;;;;0.89;87.38;99834.13;4461515;32;32430;-88
2022/12/08 03:37:01;;;;;;;19.42;9.60;;;;;;;1.44;85.98;99831.75;4483628;31;33466;-88
2022/12/08 03:39:29;;;;;;;21.75;10.77;;;;;;;1.95;82.84;99824.81;4485293;31;34589;-88
2022/12/08 03:41:56;;;;;;;19.12;9.50;;;;;;;2.29;81.66;99821.47;4484939;31;34145;-88
2022/12/08 03:44:24;;;;;;;22.17;10.38;;;;;;;2.69;79.94;99814.28;4500106;31;33958;-88
2022/12/08 03:46:51;;;;;;;18.60;10.00;;;;;;;2.92;79.05;99823.72;4482076;31;33620;-88
2022/12/08 03:49:19;;;;;;;18.42;9.57;;;;;;;2.79;78.24;99821.88;4484464;31;32623;-88
2022/12/08 03:51:46;;;;;;;21.30;10.93;;;;;;;2.74;79.05;99812.97;4485256;31;32730;-88
2022/12/08 03:54:14;;;;;;;19.35;9.07;;;;;;;2.80;78.89;99818.56;4485046;31;34643;-88
2022/12/08 03:56:41;;;;;;;20.08;9.52;;;;;;;3.09;77.38;99812.16;4498326;31;34806;-87
2022/12/08 03:59:09;;;;;;;22.02;10.88;;;;;;;3.00;77.46;99811.50;4499497;31;34269;-88
2022/12/08 04:01:36;;;;;;;25.23;12.48;;;;;;;2.90;77.83;99810.78;4485541;31;33779;-88
2022/12/08 04:04:04;;;;;;;20.37;9.77;;;;;;;2.95;77.56;99808.56;4491356;31;33944;-88
2022/12/08 04:06:32;;;;;;;16.15;8.43;;;;;;;2.85;77.69;99803.53;4494528;31;33468;-87
2022/12/08 04:09:00;;;;;;;19.77;9.68;;;;;;;3.20;76.29;99808.72;4484498;31;33589;-87
2022/12/08 04:11:28;;;;;;;19.05;9.45;;;;;;;3.46;75.23;99804.63;4499491;31;34059;-88
2022/12/08 04:13:55;;;;;;;18.05;9.15;;;;;;;2.92;76.96;99804.13;4492195;31;34047;-88
2022/12/08 04:16:24;;;;;;;18.52;9.63;;;;;;;3.11;76.23;99793.59;4493509;31;33099;-88
2022/12/08 04:18:51;;;;;;;18.33;9.15;;;;;;;3.24;75.60;99789.38;4485112;31;33610;-88
2022/12/08 04:21:19;;;;;;;21.05;9.52;;;;;;;3.14;75.47;99795.47;4499257;31;33694;-88
2022/12/08 04:23:47;;;;;;;20.58;9.80;;;;;;;2.76;76.52;99796.06;4485184;31;34368;-87
2022/12/08 04:26:15;;;;;;;20.45;9.90;;;;;;;2.39;77.79;99798.38;4499152;31;33847;-88
2022/12/08 04:28:42;;;;;;;17.05;9.77;;;;;;;2.21;78.52;99799.53;4485621;31;33381;-88
2022/12/08 04:31:10;;;;;;;21.35;9.75;;;;;;;1.79;81.17;99796.28;4484989;31;34665;-87
2022/12/08 04:33:38;;;;;;;21.33;9.85;;;;;;;1.34;83.41;99800.38;4485164;31;34737;-88
2022/12/08 04:36:06;;;;;;;25.67;10.13;;;;;;;1.41;83.77;99795.75;4483809;31;33456;-88
2022/12/08 04:38:33;;;;;;;19.58;9.85;;;;;;;2.22;80.88;99801.28;4484695;31;33425;-87
2022/12/08 04:41:01;;;;;;;20.30;9.93;;;;;;;2.99;77.19;99796.91;4473627;31;31422;-88
2022/12/08 04:43:29;;;;;;;20.02;9.38;;;;;;;3.15;76.21;99802.41;4487224;31;33798;-88
2022/12/08 04:45:56;;;;;;;19.10;9.32;;;;;;;3.51;74.59;99798.16;4486521;31;34002;-87
2022/12/08 04:48:24;;;;;;;22.83;9.95;;;;;;;3.67;73.92;99802.72;4500636;31;34652;-88
2022/12/08 04:50:51;;;;;;;21.08;10.57;;;;;;;3.71;73.64;99792.81;4471659;31;33448;-88
2022/12/08 04:53:20;;;;;;;22.50;11.30;;;;;;;3.74;73.23;99792.12;4499810;31;34130;-88
2022/12/08 04:55:48;;;;;;;22.65;11.40;;;;;;;3.65;73.83;99794.94;4500504;31;34197;-88
2022/12/08 04:58:17;;;;;;;22.00;11.68;;;;;;;3.58;74.12;99790.16;4472222;31;34541;-87
2022/12/08 05:00:46;;;;;;;22.83;11.05;;;;;;;3.53;74.28;99796.59;4500770;31;33913;-88
2022/12/08 05:03:14;;;;;;;21.65;10.63;;;;;;;3.43;74.47;99796.72;4465853;31;32337;-88
2022/12/08 05:05:42;;;;;;;21.20;10.95;;;;;;;2.70;76.84;99795.59;4500776;31;33586;-87
2022/12/08 05:08:10;;;;;;;20.15;10.80;;;;;;;3.32;74.86;99795.94;4474580;31;33873;-88
2022/12/08 05:10:38;;;;;;;19.98;10.05;;;;;;;3.34;74.83;99800.41;4486665;31;33946;-88
2022/12/08 05:13:05;;;;;;;22.77;12.70;;;;;;;3.80;73.36;99800.25;4487092;31;34048;-88
2022/12/08 05:15:33;;;;;;;23.75;13.68;;;;;;;3.56;73.89;99796.84;4486475;31;33765;-87
2022/12/08 05:18:00;;;;;;;25.85;13.90;;;;;;;3.00;76.16;99796.13;4486540;31;32063;-87
2022/12/08 05:20:28;;;;;;;26.45;14.70;;;;;;;2.56;78.04;99800.56;4479104;31;33908;-88
2022/12/08 05:22:55;;;;;;;24.90;13.25;;;;;;;2.84;77.16;99795.00;4500883;31;33848;-88
2022/12/08 05:25:23;;;;;;;27.83;13.82;;;;;;;3.25;75.67;99794.59;4484529;31;32708;-87
2022/12/08 05:27:50;;;;;;;28.92;14.60;;;;;;;3.61;74.15;99790.38;4500775;31;34151;-87
2022/12/08 05:30:28;;;;;;;25.27;13.70;;;;;;;3.78;73.49;99793.25;4493692;31;34567;-87
2022/12/08 05:32:56;;;;;;;26.30;14.48;;;;;;;3.82;73.53;99785.00;4485832;31;33468;-88
2022/12/08 05:35:23;;;;;;;22.77;13.25;;;;;;;4.02;72.67;99774.50;4483688;31;33757;-88
2022/12/08 05:37:52;;;;;;;28.00;14.18;;;;;;;4.12;72.31;99773.47;4483371;31;32545;-87
2022/12/08 05:40:20;;;;;;;27.30;13.43;;;;;;;4.02;72.69;99764.25;4500016;31;33853;-88
2022/12/08 05:42:47;;;;;;;25.58;13.68;;;;;;;2.99;75.91;99778.97;4486730;31;33973;-87
2022/12/08 05:45:15;;;;;;;23.85;12.55;;;;;;;2.25;79.24;99773.44;4486195;31;33687;-88
2022/12/08 05:47:43;;;;;;;26.67;13.07;;;;;;;1.91;81.77;99788.69;4486919;31;34187;-88
2022/12/08 05:50:10;;;;;;;27.00;14.18;;;;;;;2.10;81.29;99788.47;4485922;31;33607;-87
2022/12/08 05:52:38;;;;;;;32.30;15.27;;;;;;;2.16;81.20;99787.28;4486517;31;32989;-87
2022/12/08 05:55:05;;;;;;;24.70;14.52;;;;;;;3.23;76.97;99775.69;4486648;31;32992;-88
2022/12/08 05:57:33;;;;;;;29.08;15.80;;;;;;;3.43;75.91;99781.34;4486432;31;33402;-88
2022/12/08 06:00:01;;;;;;;26.05;15.05;;;;;;;3.08;77.29;99784.78;4452777;32;32640;-87
2022/12/08 06:02:38;;;;;;;28.23;15.40;;;;;;;3.51;75.65;99787.91;4499872;31;33959;-88
2022/12/08 06:05:06;;;;;;;30.15;16.10;;;;;;;3.73;75.01;99781.00;4486368;31;34126;-87
2022/12/08 06:07:34;;;;;;;27.85;15.07;;;;;;;3.91;74.19;99785.66;4500355;31;34127;-87
2022/12/08 06:10:02;;;;;;;31.10;16.20;;;;;;;3.94;74.22;99788.44;4500001;31;34414;-87
2022/12/08 06:12:30;;;;;;;27.00;15.02;;;;;;;4.04;73.71;99777.16;4485950;31;33186;-87
2022/12/08 06:14:58;;;;;;;27.50;15.02;;;;;;;4.35;72.82;99780.19;4485876;31;33600;-87
2022/12/08 06:17:25;;;;;;;25.48;14.23;;;;;;;4.49;71.53;99776.88;4485651;31;32973;-87
2022/12/08 06:19:53;;;;;;;22.35;12.00;;;;;;;4.47;71.14;99781.00;4500837;31;33115;-88
2022/12/08 06:22:20;;;;;;;24.20;12.02;;;;;;;4.53;70.80;99780.53;4490085;31;33823;-88
2022/12/08 06:24:48;;;;;;;21.62;10.98;;;;;;;4.22;71.93;99787.81;4497503;31;33115;-88
2022/12/08 06:27:16;;;;;;;24.17;12.65;;;;;;;4.03;72.72;99791.62;4497652;31;34021;-88
2022/12/08 06:29:43;;;;;;;23.00;12.15;;;;;;;3.63;74.04;99788.81;4491071;31;33433;-87
2022/12/08 06:32:10;;;;;;;24.73;12.32;;;;;;;3.49;74.87;99797.16;4486102;31;33495;-87
2022/12/08 06:34:38;;;;;;;20.35;11.65;;;;;;;4.00;72.87;99796.56;4486245;31;33377;-88
2022/12/08 06:37:06;;;;;;;23.45;12.10;;;;;;;4.33;71.63;99792.88;4486152;31;33662;-88
2022/12/08 06:39:33;;;;;;;23.30;11.52;;;;;;;4.25;71.63;99788.91;4468800;32;34499;-88
2022/12/08 06:44:47;;;;;;;25.05;11.57;;;;;;;2.67;78.88;99805.63;4489841;31;33149;-87
2022/12/08 06:47:15;;;;;;;20.33;11.38;;;;;;;2.64;79.09;99805.38;4480776;31;33721;-87
2022/12/08 06:49:42;;;;;;;22.83;12.45;;;;;;;3.04;77.35;99803.25;4493436;31;33574;-87
2022/12/08 06:52:10;;;;;;;24.87;12.07;;;;;;;3.39;76.29;99797.28;4491409;31;33871;-88
2022/12/08 06:54:37;;;;;;;27.05;13.07;;;;;;;3.61;75.55;99805.75;4475024;31;34179;-87
2022/12/08 06:57:05;;;;;;;25.02;12.88;;;;;;;3.74;75.06;99803.25;4478845;31;34514;-88
2022/12/08 06:59:32;;;;;;;23.85;13.05;;;;;;;3.89;74.84;99802.59;4491871;31;34533;-88
2022/12/08 07:02:00;;;;;;;27.33;12.82;;;;;;;4.01;74.15;99798.31;4474557;32;34570;-88
2022/12/08 07:04:28;;;;;;;27.17;14.23;;;;;;;3.82;75.32;99800.38;4499396;31;33135;-87
2022/12/08 07:06:55;;;;;;;28.33;15.57;;;;;;;4.05;74.60;99805.44;4486430;31;34557;-87
2022/12/08 07:09:23;;;;;;;26.20;13.88;;;;;;;4.03;74.72;99804.44;4470326;32;33893;-87
2022/12/08 07:11:51;;;;;;;25.95;13.52;;;;;;;3.95;74.98;99805.59;4474861;32;33961;-88
2022/12/08 07:14:22;;;;;;;25.10;14.05;;;;;;;3.95;74.90;99813.28;4457728;32;34036;-87
2022/12/08 07:16:51;;;;;;;29.95;15.75;;;;;;;3.64;75.65;99810.19;4482605;31;34552;-88
2022/12/08 07:19:18;;;;;;;29.00;14.95;;;;;;;3.76;75.42;99815.31;4486447;31;33297;-88
2022/12/08 07:21:46;;;;;;;31.80;16.00;;;;;;;4.04;74.29;99811.37;4497455;31;34070;-88
2022/12/08 07:24:14;;;;;;;28.15;15.73;;;;;;;4.15;73.99;99809.53;4500416;31;34280;-87
2022/12/08 07:26:41;;;;;;;29.48;15.60;;;;;;;4.40;73.22;99803.56;4499885;31;33821;-87
2022/12/08 07:29:09;;;;;;;30.12;16.48;;;;;;;4.38;73.38;99795.75;4500230;31;33924;-87
2022/12/08 07:31:37;;;;;;;35.22;16.45;;;;;;;4.33;73.90;99797.13;4486117;31;34439;-88
2022/12/08 07:34:04;;;;;;;36.72;18.23;;;;;;;4.36;73.97;99792.19;4499148;31;33937;-88
2022/12/08 07:36:32;;;;;;;37.55;20.40;;;;;;;4.37;74.34;99796.56;4494046;31;33415;-87
2022/12/08 07:38:59;;;;;;;45.80;22.05;;;;;;;4.34;73.73;99798.91;4498596;31;33925;-88
2022/12/08 07:41:27;;;;;;;34.03;19.65;;;;;;;4.34;73.85;99786.97;4498119;31;33849;-87
2022/12/08 07:43:55;;;;;;;38.38;19.83;;;;;;;4.47;73.63;99786.13;4499908;31;33154;-87
2022/12/08 07:46:24;;;;;;;42.40;20.33;;;;;;;4.80;72.62;99780.63;4484051;31;33080;-87
2022/12/08 07:48:52;;;;;;;42.67;21.52;;;;;;;4.73;73.02;99779.31;4499840;31;33903;-87
2022/12/08 07:51:20;;;;;;;42.13;22.35;;;;;;;4.71;73.42;99786.94;4489655;31;33695;-87
2022/12/08 07:53:49;;;;;;;44.75;24.65;;;;;;;4.78;73.39;99788.22;4495859;31;32645;-87
2022/12/08 07:56:21;;;;;;;45.28;22.87;;;;;;;4.56;73.78;99797.81;4472862;32;34553;-87
2022/12/08 07:58:49;;;;;;;49.20;24.77;;;;;;;4.74;73.70;99788.81;4461241;31;32941;-86
2022/12/08 08:01:31;;;;;;;47.95;25.65;;;;;;;4.79;73.51;99790.03;4487986;31;33405;-87
2022/12/08 08:04:01;;;;;;;46.83;24.12;;;;;;;4.75;74.01;99792.25;4480601;31;33931;-86
2022/12/08 08:06:29;;;;;;;44.90;23.75;;;;;;;4.77;74.04;99794.16;4496468;31;34500;-87
2022/12/08 08:08:56;;;;;;;44.70;23.98;;;;;;;4.69;74.61;99790.16;4497328;31;34543;-87
2022/12/08 08:11:24;;;;;;;46.72;24.37;;;;;;;4.73;74.83;99789.56;4468620;31;34678;-88
2022/12/08 08:13:51;;;;;;;51.45;25.62;;;;;;;4.83;74.86;99788.53;4495886;31;33427;-86
2022/12/08 08:16:19;;;;;;;53.50;25.83;;;;;;;4.77;75.28;99785.53;4492624;31;34602;-87
2022/12/08 08:18:49;;;;;;;45.28;25.75;;;;;;;4.81;75.30;99783.31;4478601;31;33957;-87
2022/12/08 08:21:18;;;;;;;44.40;25.15;;;;;;;5.31;73.87;99780.63;4494850;31;34579;-87
2022/12/08 08:24:05;;;;;;;49.28;25.27;;;;;;;5.22;74.27;99772.31;4494856;31;33555;-87
2022/12/08 08:26:33;;;;;;;55.30;26.05;;;;;;;5.43;73.60;99775.41;4485863;31;33376;-87
2022/12/08 08:29:00;;;;;;;52.13;25.73;;;;;;;5.43;73.82;99782.22;4501323;31;34440;-87
2022/12/08 08:31:28;;;;;;;48.90;24.90;;;;;;;5.46;73.95;99784.97;4498686;31;34511;-87
2022/12/08 08:33:56;;;;;;;49.25;25.33;;;;;;;5.45;73.96;99780.63;4500431;31;33307;-87
2022/12/08 08:36:23;;;;;;;49.65;26.20;;;;;;;5.58;73.67;99784.88;4499901;31;33917;-87
2022/12/08 08:38:51;;;;;;;51.33;25.88;;;;;;;5.70;73.28;99778.84;4489611;31;33597;-87
2022/12/08 08:41:19;;;;;;;52.45;26.83;;;;;;;5.53;73.88;99770.84;4477558;31;34416;-89
2022/12/08 08:43:46;;;;;;;48.00;26.67;;;;;;;5.71;73.64;99772.87;4490303;31;33889;-87
2022/12/08 08:46:14;;;;;;;47.22;26.23;;;;;;;5.83;73.39;99784.75;4490521;31;34317;-87
2022/12/08 08:48:42;;;;;;;47.45;25.70;;;;;;;5.88;73.30;99783.38;4482593;31;33964;-87
2022/12/08 08:51:11;;;;;;;43.87;23.62;;;;;;;5.67;74.25;99773.50;4498021;31;33690;-87
2022/12/08 08:53:39;;;;;;;45.25;24.23;;;;;;;5.41;75.56;99770.91;4490573;31;33385;-87
2022/12/08 08:56:12;;;;;;;45.30;24.63;;;;;;;5.75;74.22;99766.25;4480798;31;34140;-87
2022/12/08 08:58:40;;;;;;;40.35;23.52;;;;;;;6.05;73.59;99761.31;4496121;31;34290;-87
2022/12/08 09:01:07;;;;;;;46.97;23.70;;;;;;;6.12;73.33;99773.75;4491518;31;34249;-86
2022/12/08 09:03:35;;;;;;;47.28;24.37;;;;;;;6.13;73.13;99779.78;4495553;31;34257;-87
2022/12/08 09:06:02;;;;;;;44.03;23.35;;;;;;;6.28;72.82;99791.03;4477550;31;34192;-87
2022/12/08 09:08:30;;;;;;;40.42;22.70;;;;;;;6.35;72.64;99767.44;4499317;31;34639;-87
2022/12/08 09:10:57;;;;;;;39.58;22.37;;;;;;;6.63;71.43;99756.25;4495782;31;33841;-86
2022/12/08 09:13:26;;;;;;;41.85;23.45;;;;;;;5.94;73.80;99757.16;4485155;31;34254;-88
2022/12/08 09:15:53;;;;;;;45.40;23.70;;;;;;;6.18;73.48;99769.00;4496509;31;33472;-87
2022/12/08 09:18:20;;;;;;;40.88;22.98;;;;;;;6.37;72.82;99760.69;4480778;31;32516;-88
2022/12/08 09:20:48;;;;;;;46.10;23.77;;;;;;;6.55;72.17;99763.50;4487594;31;34091;-88
2022/12/08 09:23:16;;;;;;;41.72;23.17;;;;;;;6.49;72.64;99766.59;4481298;32;34157;-88
2022/12/08 09:25:44;;;;;;;40.33;22.42;;;;;;;6.47;72.92;99773.34;4477846;31;31506;-88
2022/12/08 09:28:13;;;;;;;40.35;20.62;;;;;;;6.67;71.96;99768.50;4493881;31;33865;-88
2022/12/08 09:33:27;;;;;;;35.92;19.98;;;;;;;6.53;71.77;99756.47;4469927;31;33272;-88
2022/12/08 09:35:54;;;;;;;33.35;18.58;;;;;;;6.23;72.76;99748.69;4473093;31;33703;-88
2022/12/08 09:38:22;;;;;;;37.85;20.15;;;;;;;6.12;72.68;99742.00;4491659;31;34664;-87
2022/12/08 09:40:52;;;;;;;38.38;19.37;;;;;;;5.83;73.95;99726.53;4460907;31;32675;-88
2022/12/08 09:43:38;;;;;;;38.40;20.83;;;;;;;5.74;74.20;99728.53;4484134;31;32806;-87
2022/12/08 09:46:10;;;;;;;38.40;19.48;;;;;;;6.23;72.51;99723.84;4494024;31;34527;-88
2022/12/08 09:48:41;;;;;;;36.88;19.30;;;;;;;6.52;71.36;99724.72;4460676;31;33490;-89
2022/12/08 09:51:10;;;;;;;38.58;20.52;;;;;;;6.97;69.71;99724.75;4478628;31;33839;-88
2022/12/08 09:53:42;;;;;;;32.55;18.70;;;;;;;6.49;71.49;99730.56;4473570;31;33714;-88
2022/12/08 09:56:21;;;;;;;;;;;;;;;6.59;70.36;99726.87;4475601;31;33454;-86
2022/12/08 09:59:07;;;;;;;28.62;16.50;;;;;;;6.15;70.73;99709.66;4482883;31;34613;-87
2022/12/08 10:01:40;;;;;;;29.20;16.58;;;;;;;6.25;70.08;99713.66;4498824;31;33737;-87
2022/12/08 10:04:33;;;;;;;28.10;16.55;;;;;;;6.17;70.04;99720.91;4473790;31;32600;-87
2022/12/08 10:07:29;;;;;;;28.48;15.15;;;;;;;6.71;68.01;99726.69;4497313;31;34512;-87
2022/12/08 10:10:16;;;;;;;30.42;14.75;;;;;;;6.76;66.76;99720.13;4489522;31;33214;-85
2022/12/08 10:12:59;;;;;;;26.17;15.85;;;;;;;6.84;66.62;99731.75;4497662;31;33602;-85
2022/12/08 10:15:38;;;;;;;24.70;13.27;;;;;;;6.77;66.57;99716.75;4481689;31;34128;-85
2022/12/08 10:18:14;;;;;;;33.08;15.57;;;;;;;6.58;67.00;99724.19;4492812;31;33738;-85
2022/12/08 10:20:45;;;;;;;27.62;14.55;;;;;;;6.81;65.97;99716.12;4500910;31;33693;-86
2022/12/08 10:23:15;;;;;;;23.35;14.18;;;;;;;6.66;66.29;99716.12;4488326;31;32221;-86
2022/12/08 10:25:46;;;;;;;25.70;14.80;;;;;;;6.68;66.51;99706.81;4482744;31;33629;-86
2022/12/08 10:28:14;;;;;;;25.50;14.25;;;;;;;6.78;66.15;99703.09;4483825;31;34559;-85
2022/12/08 10:30:42;;;;;;;24.12;13.65;;;;;;;6.05;68.40;99692.78;4490151;31;33738;-85
2022/12/08 10:33:17;;;;;;;28.60;13.73;;;;;;;6.23;68.17;99692.09;4486144;31;32227;-86
2022/12/08 10:35:51;;;;;;;25.02;13.38;;;;;;;6.05;68.34;99679.03;4477060;31;34076;-85
2022/12/08 10:38:26;;;;;;;24.17;13.13;;;;;;;5.97;68.18;99680.22;4472611;31;33923;-87
2022/12/08 10:41:00;;;;;;;24.87;13.77;;;;;;;6.41;66.86;99675.22;4472865;31;33696;-86
2022/12/08 10:43:28;;;;;;;24.17;13.25;;;;;;;6.40;65.77;99676.00;4478023;32;34255;-86
2022/12/08 10:46:07;;;;;;;24.27;11.63;;;;;;;6.38;66.27;99659.56;4478819;31;33206;-86
2022/12/08 10:48:35;;;;;;;23.83;12.35;;;;;;;5.80;68.23;99656.06;4479905;32;34411;-85
2022/12/08 10:51:04;;;;;;;25.92;12.80;;;;;;;5.95;68.25;99661.22;4499437;31;34369;-84
2022/12/08 10:53:33;;;;;;;20.52;12.30;;;;;;;6.23;67.31;99648.38;4482650;31;34392;-85
2022/12/08 10:56:00;;;;;;;25.02;12.98;;;;;;;5.81;68.84;99647.53;4500492;31;33566;-86
2022/12/08 10:58:34;;;;;;;23.40;12.40;;;;;;;5.97;68.15;99640.00;4499998;31;33541;-86
2022/12/08 11:01:05;;;;;;;24.23;12.88;;;;;;;6.33;66.87;99636.94;4500549;31;33422;-86
2022/12/08 11:03:36;;;;;;;24.15;13.23;;;;;;;6.37;66.12;99632.06;4500113;31;33739;-86
2022/12/08 11:06:23;;;;;;;22.67;11.85;;;;;;;6.76;65.10;99627.47;4486579;31;33446;-88
2022/12/08 11:08:58;;;;;;;23.40;13.25;;;;;;;6.92;64.52;99630.91;4470246;31;32960;-86
2022/12/08 11:11:46;;;;;;;24.83;13.05;;;;;;;6.55;66.67;99618.47;4472871;31;33107;-86
2022/12/08 11:14:32;;;;;;;23.45;11.75;;;;;;;5.91;68.38;99609.63;4470520;32;33810;-86
2022/12/08 11:17:07;;;;;;;23.90;12.73;;;;;;;5.89;67.05;99603.50;4484442;31;33511;-85
2022/12/08 11:19:39;;;;;;;25.10;12.15;;;;;;;6.03;66.39;99594.09;4500326;31;34445;-85
2022/12/08 11:22:31;;;;;;;21.45;12.55;;;;;;;6.00;67.40;99583.59;4500354;31;34282;-86
2022/12/08 11:25:02;;;;;;;20.83;11.88;;;;;;;6.00;67.53;99580.16;4483934;31;32075;-86
2022/12/08 11:27:31;;;;;;;24.05;13.05;;;;;;;5.65;69.06;99569.50;4485258;31;33276;-86
2022/12/08 11:30:00;;;;;;;21.80;11.48;;;;;;;5.85;68.54;99572.38;4485734;31;33783;-86
2022/12/08 11:32:27;;;;;;;21.85;12.18;;;;;;;5.76;68.83;99566.72;4482430;31;33634;-85
2022/12/08 11:34:59;;;;;;;23.33;12.88;;;;;;;5.98;68.16;99564.63;4484726;31;34279;-85
2022/12/08 11:37:30;;;;;;;23.52;12.20;;;;;;;5.87;68.07;99555.34;4485826;31;34469;-85
2022/12/08 11:40:06;;;;;;;27.70;12.82;;;;;;;6.14;67.34;99560.38;4471704;31;31534;-86
2022/12/08 11:42:39;;;;;;;21.85;11.60;;;;;;;6.18;66.83;99559.75;4485411;31;33342;-86
2022/12/08 11:45:12;;;;;;;22.85;11.82;;;;;;;6.17;67.31;99551.16;4480217;31;33881;-87
2022/12/08 11:47:47;;;;;;;26.65;13.13;;;;;;;6.04;67.14;99552.13;4485149;31;34163;-86
2022/12/08 11:50:32;;;;;;;22.65;11.57;;;;;;;6.66;65.46;99547.94;4486399;31;34217;-86
2022/12/08 11:53:00;;;;;;;20.95;11.38;;;;;;;6.36;65.87;99542.84;4499915;31;33805;-86
2022/12/08 11:55:32;;;;;;;21.25;10.70;;;;;;;6.18;66.17;99544.31;4499658;31;33566;-86